Time;durP1;ratioP1;P1;durP2;ratioP2;P2;SDS_P1;SDS_P2;PMS_P1;PMS_P2;Temp;Humidity;BMP_temperature;BMP_pressure;BME280_temperature;BME280_humidity;BME280_pressure;Samples;Min_cycle;Max_cycle;Signal;HPM_P1;HPM_P2
2021/06/13 00:00:21;;;;;;;10.60;4.67;;;;;;;;;;5056059;28;20428;-57
2021/06/13 00:02:48;;;;;;;9.93;4.60;;;;;;;;;;5055594;28;20462;-55
2021/06/13 00:05:16;;;;;;;8.07;5.53;;;;;;;;;;5056271;28;20458;-58
2021/06/13 00:08:08;;;;;;;12.10;8.30;;;;;;;;;;5056387;28;20531;-57
2021/06/13 00:10:36;;;;;;;13.67;5.30;;;;;;;;;;5056099;28;20457;-56
2021/06/13 00:13:03;;;;;;;13.70;6.10;;;;;;;;;;5056210;28;20452;-59
2021/06/13 00:15:30;;;;;;;8.87;4.80;;;;;;;;;;5056121;28;20450;-57
2021/06/13 00:17:57;;;;;;;9.57;4.67;;;;;;;;;;5056352;28;20484;-55
2021/06/13 00:20:24;;;;;;;11.20;5.50;;;;;;;;;;5056299;28;20557;-58
2021/06/13 00:22:51;;;;;;;11.17;6.13;;;;;;;;;;5056769;28;20449;-59
2021/06/13 00:25:19;;;;;;;10.90;4.77;;;;;;;;;;5056912;28;20457;-56
2021/06/13 00:27:48;;;;;;;9.97;4.40;;;;;;;;;;5055590;28;20473;-58
2021/06/13 00:30:16;;;;;;;11.47;4.87;;;;;;;;;;5056009;28;20472;-61
2021/06/13 00:32:43;;;;;;;17.83;6.10;;;;;;;;;;5056288;28;20518;-57
2021/06/13 00:35:13;;;;;;;12.57;4.60;;;;;;;;;;5055798;28;20450;-58
2021/06/13 00:37:44;;;;;;;8.33;4.80;;;;;;;;;;5055761;28;20470;-56
2021/06/13 00:40:11;;;;;;;10.63;5.10;;;;;;;;;;5056077;28;20494;-61
2021/06/13 00:42:43;;;;;;;9.17;4.30;;;;;;;;;;5056673;28;20558;-53
2021/06/13 00:45:12;;;;;;;7.73;4.57;;;;;;;;;;5055155;28;20452;-57
2021/06/13 00:47:40;;;;;;;10.60;5.10;;;;;;;;;;5056342;28;20469;-58
2021/06/13 00:53:10;;;;;;;8.77;5.37;;;;;;;;;;5056659;28;20435;-56
2021/06/13 00:55:43;;;;;;;13.07;6.53;;;;;;;;;;5056999;28;20454;-60
2021/06/13 00:58:10;;;;;;;9.87;4.57;;;;;;;;;;5055873;28;20485;-59
2021/06/13 01:00:40;;;;;;;15.57;8.20;;;;;;;;;;5055824;28;20529;-55
2021/06/13 01:03:33;;;;;;;13.63;5.87;;;;;;;;;;5055971;28;20441;-51
2021/06/13 01:06:00;;;;;;;10.70;6.00;;;;;;;;;;5056222;28;20457;-55
2021/06/13 01:08:30;;;;;;;11.23;5.37;;;;;;;;;;5056064;28;20472;-56
2021/06/13 01:11:12;;;;;;;10.60;5.53;;;;;;;;;;5056128;28;20454;-57
2021/06/13 01:13:42;;;;;;;9.97;6.03;;;;;;;;;;5055537;28;20458;-58
2021/06/13 01:16:13;;;;;;;9.37;5.30;;;;;;;;;;5055488;28;20456;-59
2021/06/13 01:18:46;;;;;;;11.70;5.80;;;;;;;;;;5054802;28;20502;-58
2021/06/13 01:21:15;;;;;;;12.10;6.00;;;;;;;;;;5054671;28;20521;-51
2021/06/13 01:23:57;;;;;;;12.50;5.73;;;;;;;;;;5055967;28;20450;-57
2021/06/13 01:26:48;;;;;;;7.27;4.90;;;;;;;;;;5054649;28;20480;-60
2021/06/13 01:29:20;;;;;;;14.10;5.50;;;;;;;;;;5055250;28;20500;-54
2021/06/13 01:31:48;;;;;;;13.50;6.07;;;;;;;;;;5055616;28;20461;-60
2021/06/13 01:34:17;;;;;;;9.17;5.20;;;;;;;;;;5055019;28;20452;-60
2021/06/13 01:39:49;;;;;;;11.93;5.57;;;;;;;;;;5053380;28;20758;-60
2021/06/13 01:42:16;;;;;;;13.70;5.43;;;;;;;;;;5054534;28;20458;-61
2021/06/13 01:44:46;;;;;;;13.13;5.83;;;;;;;;;;5054179;28;20457;-56
2021/06/13 01:47:13;;;;;;;10.47;5.57;;;;;;;;;;5054638;28;20530;-60
2021/06/13 01:49:54;;;;;;;10.07;5.07;;;;;;;;;;5055314;28;20502;-60
2021/06/13 01:52:22;;;;;;;8.10;5.83;;;;;;;;;;5055338;28;20464;-58
2021/06/13 01:54:50;;;;;;;13.37;6.63;;;;;;;;;;5054630;28;20493;-55
2021/06/13 01:57:32;;;;;;;11.57;5.33;;;;;;;;;;5058230;28;20446;-59
2021/06/13 02:00:00;;;;;;;17.70;5.80;;;;;;;;;;5057247;28;20565;-58
2021/06/13 02:02:27;;;;;;;11.17;5.83;;;;;;;;;;5058858;28;20488;-59
2021/06/13 02:05:06;;;;;;;10.17;5.97;;;;;;;;;;5059414;28;20517;-55
2021/06/13 02:07:35;;;;;;;12.10;5.77;;;;;;;;;;5058553;28;20462;-59
2021/06/13 02:10:04;;;;;;;11.60;4.80;;;;;;;;;;5058456;28;20485;-55
2021/06/13 02:12:32;;;;;;;16.60;6.07;;;;;;;;;;5058502;28;20522;-57
2021/06/13 02:15:01;;;;;;;7.93;5.70;;;;;;;;;;5058784;28;20492;-58
2021/06/13 02:17:28;;;;;;;12.07;6.00;;;;;;;;;;5058209;28;20486;-58
2021/06/13 02:20:00;;;;;;;11.77;6.63;;;;;;;;;;5058637;28;20465;-59
2021/06/13 02:22:27;;;;;;;10.00;6.10;;;;;;;;;;5058566;28;20450;-58
2021/06/13 02:24:54;;;;;;;11.00;6.60;;;;;;;;;;5058616;28;20441;-53
2021/06/13 02:27:39;;;;;;;11.57;7.77;;;;;;;;;;5058618;28;20457;-53
2021/06/13 02:30:09;;;;;;;15.90;7.07;;;;;;;;;;5058282;28;20450;-60
2021/06/13 02:32:37;;;;;;;11.57;7.00;;;;;;;;;;5049819;28;20505;-60
2021/06/13 02:35:05;;;;;;;16.53;8.97;;;;;;;;;;5058269;28;20461;-61
2021/06/13 02:37:32;;;;;;;13.00;6.70;;;;;;;;;;5058486;28;20591;-57
2021/06/13 02:40:06;;;;;;;14.37;9.50;;;;;;;;;;5058382;28;20422;-56
2021/06/13 02:42:33;;;;;;;11.03;6.13;;;;;;;;;;5058807;28;20464;-58
2021/06/13 02:45:00;;;;;;;11.30;6.10;;;;;;;;;;5058370;28;20466;-55
2021/06/13 02:47:46;;;;;;;12.90;6.57;;;;;;;;;;5058358;28;20462;-57
2021/06/13 02:50:14;;;;;;;10.10;6.00;;;;;;;;;;5058785;28;20442;-56
2021/06/13 02:52:42;;;;;;;13.33;7.37;;;;;;;;;;5058722;28;20466;-58
2021/06/13 02:55:18;;;;;;;12.57;7.90;;;;;;;;;;5058984;28;20438;-61
2021/06/13 02:57:49;;;;;;;10.10;5.57;;;;;;;;;;5058242;28;20489;-59
2021/06/13 03:00:17;;;;;;;17.00;6.50;;;;;;;;;;5058157;28;20493;-56
2021/06/13 03:02:56;;;;;;;10.87;5.80;;;;;;;;;;5057569;28;20462;-56
2021/06/13 03:05:26;;;;;;;21.57;7.90;;;;;;;;;;5057663;28;20469;-58
2021/06/13 03:07:53;;;;;;;14.00;6.73;;;;;;;;;;5056625;28;20458;-61
2021/06/13 03:10:20;;;;;;;11.73;5.23;;;;;;;;;;5057455;28;20430;-59
2021/06/13 03:12:48;;;;;;;10.90;6.83;;;;;;;;;;5057402;28;20517;-53
2021/06/13 03:15:15;;;;;;;16.73;6.00;;;;;;;;;;5057859;28;20461;-54
2021/06/13 03:17:52;;;;;;;12.70;6.10;;;;;;;;;;5057398;28;20470;-60
2021/06/13 03:20:19;;;;;;;14.23;6.50;;;;;;;;;;5057846;28;20539;-52
2021/06/13 03:22:48;;;;;;;23.53;11.47;;;;;;;;;;5057615;28;20462;-58
2021/06/13 03:25:39;;;;;;;18.93;7.30;;;;;;;;;;5057984;28;20437;-58
2021/06/13 03:28:07;;;;;;;14.83;6.30;;;;;;;;;;5057311;28;20464;-60
2021/06/13 03:30:34;;;;;;;20.13;7.07;;;;;;;;;;5057496;28;20529;-55
2021/06/13 03:33:20;;;;;;;17.60;6.37;;;;;;;;;;5058402;28;20468;-57
2021/06/13 03:35:48;;;;;;;19.20;7.20;;;;;;;;;;5057207;28;20493;-62
2021/06/13 03:38:17;;;;;;;17.53;6.67;;;;;;;;;;5057373;28;20493;-55
2021/06/13 03:40:45;;;;;;;16.03;6.70;;;;;;;;;;5057049;28;20525;-61
2021/06/13 03:43:13;;;;;;;12.53;6.80;;;;;;;;;;5057618;28;20553;-55
2021/06/13 03:45:41;;;;;;;15.57;7.17;;;;;;;;;;5057324;28;20498;-61
2021/06/13 03:48:22;;;;;;;13.20;7.87;;;;;;;;;;5057276;28;20481;-60
2021/06/13 03:50:50;;;;;;;13.53;7.00;;;;;;;;;;5057029;28;20468;-56
2021/06/13 03:53:21;;;;;;;16.47;7.70;;;;;;;;;;5056748;28;20458;-61
2021/06/13 03:55:53;;;;;;;16.73;9.30;;;;;;;;;;5057075;28;20460;-58
2021/06/13 03:58:24;;;;;;;14.17;6.87;;;;;;;;;;5056485;28;20482;-51
2021/06/13 04:00:53;;;;;;;15.77;7.50;;;;;;;;;;5056995;28;20470;-56
2021/06/13 04:06:25;;;;;;;15.40;6.93;;;;;;;;;;5076620;28;20458;-56
2021/06/13 04:08:54;;;;;;;13.17;7.30;;;;;;;;;;5076827;28;20457;-57
2021/06/13 04:11:46;;;;;;;18.10;6.97;;;;;;;;;;5076863;28;20485;-59
2021/06/13 04:14:14;;;;;;;13.20;5.97;;;;;;;;;;5057907;28;20498;-59
2021/06/13 04:16:42;;;;;;;12.17;5.90;;;;;;;;;;5056769;28;20458;-60
2021/06/13 04:19:23;;;;;;;14.67;6.63;;;;;;;;;;5055916;28;20936;-58
2021/06/13 04:21:51;;;;;;;12.83;5.90;;;;;;;;;;5054331;28;20500;-61
2021/06/13 04:24:22;;;;;;;14.80;8.33;;;;;;;;;;5056412;28;20454;-61
2021/06/13 04:26:57;;;;;;;17.00;6.23;;;;;;;;;;5056357;28;20485;-59
2021/06/13 04:29:25;;;;;;;14.53;6.20;;;;;;;;;;5057218;28;20488;-57
2021/06/13 04:31:52;;;;;;;20.07;5.57;;;;;;;;;;5056685;28;20446;-58
2021/06/13 04:34:33;;;;;;;10.87;5.83;;;;;;;;;;5056730;28;20445;-61
2021/06/13 04:37:06;;;;;;;11.63;5.90;;;;;;;;;;5057344;28;20446;-55
2021/06/13 04:39:35;;;;;;;16.93;6.60;;;;;;;;;;5057146;28;20501;-52
2021/06/13 04:45:08;;;;;;;12.67;5.90;;;;;;;;;;5034993;28;20492;-59
2021/06/13 04:47:39;;;;;;;14.93;5.90;;;;;;;;;;5037025;28;20483;-59
2021/06/13 04:50:08;;;;;;;12.77;5.90;;;;;;;;;;5036912;28;20447;-59
2021/06/13 04:52:37;;;;;;;12.90;5.30;;;;;;;;;;5036873;28;20515;-52
2021/06/13 04:55:24;;;;;;;11.83;5.67;;;;;;;;;;5036653;28;20435;-60
2021/06/13 04:58:09;;;;;;;11.67;5.47;;;;;;;;;;5036511;28;20491;-58
2021/06/13 05:00:49;;;;;;;13.53;5.17;;;;;;;;;;5035084;28;20438;-59
2021/06/13 05:03:18;;;;;;;9.80;4.83;;;;;;;;;;5036962;28;20506;-54
2021/06/13 05:05:47;;;;;;;9.67;4.53;;;;;;;;;;5036746;28;20458;-60
2021/06/13 05:08:37;;;;;;;9.70;5.23;;;;;;;;;;5036869;28;20462;-61
2021/06/13 05:11:04;;;;;;;12.07;5.03;;;;;;;;;;5034287;28;20486;-54
2021/06/13 05:13:32;;;;;;;9.93;5.37;;;;;;;;;;5036553;28;20523;-63
2021/06/13 05:16:02;;;;;;;8.40;4.60;;;;;;;;;;5036531;28;20459;-60
2021/06/13 05:18:29;;;;;;;11.50;5.03;;;;;;;;;;5036075;28;20542;-59
2021/06/13 05:20:57;;;;;;;9.00;4.23;;;;;;;;;;5036186;28;20427;-60
2021/06/13 05:23:47;;;;;;;9.37;4.33;;;;;;;;;;5036001;28;20526;-60
2021/06/13 05:26:14;;;;;;;8.77;5.00;;;;;;;;;;5036586;28;20443;-59
2021/06/13 05:28:48;;;;;;;8.07;4.43;;;;;;;;;;5036399;28;20522;-61
2021/06/13 05:31:20;;;;;;;12.23;5.43;;;;;;;;;;5035727;28;20447;-59
2021/06/13 05:33:48;;;;;;;11.33;5.33;;;;;;;;;;5036270;28;20443;-58
2021/06/13 05:36:30;;;;;;;12.83;4.97;;;;;;;;;;5035779;28;20454;-55
2021/06/13 05:39:01;;;;;;;13.00;4.93;;;;;;;;;;5035728;28;20486;-58
2021/06/13 05:41:28;;;;;;;12.53;5.73;;;;;;;;;;5035401;28;20459;-56
2021/06/13 05:44:06;;;;;;;16.37;4.70;;;;;;;;;;5035736;28;20539;-62
2021/06/13 05:46:35;;;;;;;14.77;4.90;;;;;;;;;;5035379;28;20466;-61
2021/06/13 05:49:02;;;;;;;11.33;4.10;;;;;;;;;;5035749;28;20450;-57
2021/06/13 05:51:53;;;;;;;8.57;5.07;;;;;;;;;;5035278;28;20473;-57
2021/06/13 05:54:22;;;;;;;7.87;4.03;;;;;;;;;;5035641;28;20454;-57
2021/06/13 05:56:49;;;;;;;11.47;4.50;;;;;;;;;;5035318;28;20431;-55
2021/06/13 05:59:39;;;;;;;15.70;4.50;;;;;;;;;;5035050;28;20495;-61
2021/06/13 06:02:10;;;;;;;13.93;4.00;;;;;;;;;;5035447;28;20454;-57
2021/06/13 06:04:37;;;;;;;9.97;3.40;;;;;;;;;;5035632;28;20446;-61
2021/06/13 06:07:11;;;;;;;7.50;3.70;;;;;;;;;;5035260;28;20503;-60
2021/06/13 06:09:38;;;;;;;14.03;4.80;;;;;;;;;;5027159;28;20521;-53
2021/06/13 06:12:06;;;;;;;10.40;4.30;;;;;;;;;;5034967;28;20435;-54
2021/06/13 06:14:41;;;;;;;8.90;3.63;;;;;;;;;;5034532;28;20503;-61
2021/06/13 06:17:10;;;;;;;11.97;4.00;;;;;;;;;;5034237;28;20468;-61
2021/06/13 06:19:40;;;;;;;10.90;3.80;;;;;;;;;;5025805;28;20475;-55
2021/06/13 06:22:22;;;;;;;10.87;4.00;;;;;;;;;;5033859;28;20530;-63
2021/06/13 06:24:49;;;;;;;7.33;3.57;;;;;;;;;;5017895;28;20525;-61
2021/06/13 06:27:17;;;;;;;8.27;3.70;;;;;;;;;;5013999;28;20536;-61
2021/06/13 06:30:10;;;;;;;12.43;4.53;;;;;;;;;;5014108;28;20471;-60
2021/06/13 06:32:39;;;;;;;10.63;4.13;;;;;;;;;;5006356;28;20452;-56
2021/06/13 06:35:07;;;;;;;10.23;3.40;;;;;;;;;;5013799;28;20424;-59
2021/06/13 06:37:38;;;;;;;11.67;5.07;;;;;;;;;;5020290;28;20466;-55
2021/06/13 06:40:07;;;;;;;11.70;3.57;;;;;;;;;;5034356;28;20498;-54
2021/06/13 06:42:35;;;;;;;8.50;3.40;;;;;;;;;;5035550;28;20525;-55
2021/06/13 06:45:34;;;;;;;7.33;3.43;;;;;;;;;;5037951;28;20534;-51
2021/06/13 06:48:03;;;;;;;5.23;3.00;;;;;;;;;;5016033;28;20542;-58
2021/06/13 06:50:32;;;;;;;8.77;3.30;;;;;;;;;;5017540;28;20451;-56
2021/06/13 06:53:18;;;;;;;7.70;3.60;;;;;;;;;;5017984;28;20490;-57
2021/06/13 06:55:45;;;;;;;9.53;3.80;;;;;;;;;;5015451;28;20499;-59
2021/06/13 06:58:12;;;;;;;9.57;3.80;;;;;;;;;;5017812;28;20467;-57
2021/06/13 07:00:49;;;;;;;9.20;4.30;;;;;;;;;;5018349;28;20444;-60
2021/06/13 07:03:18;;;;;;;9.10;3.60;;;;;;;;;;5017272;28;20495;-53
2021/06/13 07:05:46;;;;;;;8.00;3.60;;;;;;;;;;5019442;28;20445;-57
2021/06/13 07:08:28;;;;;;;12.50;3.90;;;;;;;;;;5036518;28;20459;-49
2021/06/13 07:10:56;;;;;;;10.93;3.67;;;;;;;;;;5000344;28;20453;-52
2021/06/13 07:13:23;;;;;;;20.37;4.23;;;;;;;;;;4998522;28;20448;-61
2021/06/13 07:15:53;;;;;;;7.80;3.47;;;;;;;;;;4998968;28;20497;-52
2021/06/13 07:18:37;;;;;;;12.30;3.97;;;;;;;;;;5014836;28;20452;-55
2021/06/13 07:24:10;;;;;;;10.73;3.93;;;;;;;;;;5014564;28;20442;-53
2021/06/13 07:26:39;;;;;;;6.57;3.10;;;;;;;;;;5008686;28;20486;-55
2021/06/13 07:29:13;;;;;;;9.80;4.23;;;;;;;;;;4996488;28;20448;-60
2021/06/13 07:31:47;;;;;;;9.07;3.97;;;;;;;;;;4998450;28;20486;-52
2021/06/13 07:34:16;;;;;;;7.57;4.57;;;;;;;;;;5017205;28;20463;-61
2021/06/13 07:36:47;;;;;;;9.67;4.23;;;;;;;;;;5014275;28;20467;-61
2021/06/13 07:39:15;;;;;;;8.80;3.80;;;;;;;;;;5017411;28;20527;-56
2021/06/13 07:41:43;;;;;;;6.77;3.63;;;;;;;;;;5017143;28;20432;-52
2021/06/13 07:44:23;;;;;;;9.30;3.87;;;;;;;;;;5014266;28;20459;-60
2021/06/13 07:46:51;;;;;;;12.20;4.40;;;;;;;;;;5017969;28;20479;-60
2021/06/13 07:49:21;;;;;;;9.17;3.60;;;;;;;;;;5013322;28;20507;-57
2021/06/13 07:51:50;;;;;;;10.27;3.83;;;;;;;;;;5006493;28;20464;-57
2021/06/13 07:54:19;;;;;;;9.03;4.20;;;;;;;;;;5014963;28;20451;-59
2021/06/13 07:56:46;;;;;;;8.40;3.83;;;;;;;;;;5014826;28;20489;-61
2021/06/13 07:59:45;;;;;;;11.47;5.30;;;;;;;;;;4995663;28;20567;-59
2021/06/13 08:02:13;;;;;;;19.60;4.90;;;;;;;;;;5000655;28;20472;-59
2021/06/13 08:04:44;;;;;;;14.00;5.73;;;;;;;;;;5013170;28;20480;-58
2021/06/13 08:07:23;;;;;;;9.07;3.40;;;;;;;;;;5013019;28;20514;-61
2021/06/13 08:09:54;;;;;;;7.00;3.33;;;;;;;;;;5001258;28;20595;-57
2021/06/13 08:12:22;;;;;;;9.63;3.93;;;;;;;;;;4984354;28;20454;-56
2021/06/13 08:14:56;;;;;;;8.80;3.93;;;;;;;;;;4996811;28;20463;-57
2021/06/13 08:17:24;;;;;;;7.50;3.87;;;;;;;;;;4995481;28;20451;-53
2021/06/13 08:19:53;;;;;;;8.60;4.27;;;;;;;;;;4977508;29;20470;-57
2021/06/13 08:22:47;;;;;;;8.90;4.47;;;;;;;;;;4988472;28;20461;-56
2021/06/13 08:25:16;;;;;;;10.97;4.13;;;;;;;;;;5014058;28;20468;-59
2021/06/13 08:27:43;;;;;;;8.80;4.17;;;;;;;;;;5016233;28;20454;-58
2021/06/13 08:30:31;;;;;;;9.53;3.73;;;;;;;;;;5015314;28;20471;-53
2021/06/13 08:32:59;;;;;;;11.97;5.47;;;;;;;;;;5013738;28;20508;-61
2021/06/13 08:35:26;;;;;;;9.07;3.30;;;;;;;;;;5015628;28;20511;-61
2021/06/13 08:37:54;;;;;;;8.20;3.70;;;;;;;;;;5015793;28;20451;-62
2021/06/13 08:40:23;;;;;;;9.00;3.27;;;;;;;;;;4998285;28;20468;-59
2021/06/13 08:45:59;;;;;;;13.00;5.60;;;;;;;;;;5008626;28;20465;-63
2021/06/13 08:48:36;;;;;;;11.70;3.83;;;;;;;;;;5020038;28;20459;-56
2021/06/13 08:51:07;;;;;;;9.90;4.70;;;;;;;;;;5007931;28;20459;-57
2021/06/13 08:53:34;;;;;;;11.93;4.17;;;;;;;;;;5022521;28;20482;-60
2021/06/13 08:56:03;;;;;;;12.33;3.80;;;;;;;;;;5010219;28;20536;-52
2021/06/13 08:58:34;;;;;;;9.23;4.23;;;;;;;;;;5013852;28;20470;-58
2021/06/13 09:01:01;;;;;;;7.50;3.33;;;;;;;;;;5015045;28;20491;-55
2021/06/13 09:03:35;;;;;;;11.10;4.73;;;;;;;;;;5014633;28;20515;-61
2021/06/13 09:06:11;;;;;;;9.67;3.63;;;;;;;;;;5014331;28;20499;-58
2021/06/13 09:08:40;;;;;;;12.20;4.90;;;;;;;;;;5026235;28;20444;-58
2021/06/13 09:11:10;;;;;;;11.90;4.40;;;;;;;;;;5015741;28;20460;-56
2021/06/13 09:13:38;;;;;;;10.57;4.53;;;;;;;;;;5014705;28;20448;-57
2021/06/13 09:16:06;;;;;;;11.30;4.93;;;;;;;;;;5015052;28;20463;-62
2021/06/13 09:18:35;;;;;;;8.77;4.63;;;;;;;;;;5013779;28;20451;-60
2021/06/13 09:21:13;;;;;;;14.37;4.10;;;;;;;;;;5014258;28;20487;-60
2021/06/13 09:23:41;;;;;;;12.03;5.50;;;;;;;;;;5013926;28;20455;-58
2021/06/13 09:26:11;;;;;;;12.80;4.60;;;;;;;;;;5018803;28;20447;-59
2021/06/13 09:28:46;;;;;;;8.03;4.70;;;;;;;;;;5016530;28;20455;-61
2021/06/13 09:31:17;;;;;;;10.73;4.37;;;;;;;;;;5013636;28;20474;-60
2021/06/13 09:33:46;;;;;;;10.67;5.60;;;;;;;;;;5014056;28;20522;-57
2021/06/13 09:36:24;;;;;;;7.30;3.90;;;;;;;;;;5013933;28;20442;-56
2021/06/13 09:38:56;;;;;;;7.73;4.20;;;;;;;;;;5017292;28;20455;-60
2021/06/13 09:41:28;;;;;;;7.63;4.73;;;;;;;;;;5014881;28;20501;-61
2021/06/13 09:44:13;;;;;;;10.60;4.03;;;;;;;;;;5013691;28;20501;-57
2021/06/13 09:46:45;;;;;;;9.83;3.80;;;;;;;;;;5013012;28;20479;-58
2021/06/13 09:49:13;;;;;;;10.93;4.37;;;;;;;;;;5013621;28;20471;-59
2021/06/13 09:51:59;;;;;;;8.40;4.10;;;;;;;;;;5012997;28;20470;-62
2021/06/13 09:54:30;;;;;;;12.00;5.90;;;;;;;;;;5012114;28;20454;-60
2021/06/13 09:57:06;;;;;;;9.30;4.07;;;;;;;;;;5013026;28;20563;-62
2021/06/13 10:00:05;;;;;;;8.77;4.40;;;;;;;;;;5015838;28;20589;-60
2021/06/13 10:02:34;;;;;;;7.37;3.77;;;;;;;;;;5005939;28;20514;-56
2021/06/13 10:05:09;;;;;;;9.87;4.17;;;;;;;;;;5007387;28;20471;-61
2021/06/13 10:07:50;;;;;;;10.37;4.63;;;;;;;;;;5011881;28;20539;-59
2021/06/13 10:10:41;;;;;;;13.03;4.60;;;;;;;;;;5013969;28;20602;-59
2021/06/13 10:13:28;;;;;;;7.77;3.87;;;;;;;;;;5012713;28;20516;-60
2021/06/13 10:15:59;;;;;;;10.67;4.63;;;;;;;;;;5014058;28;20472;-60
2021/06/13 10:18:27;;;;;;;10.10;4.40;;;;;;;;;;5018592;28;20454;-50
2021/06/13 10:21:07;;;;;;;10.10;4.00;;;;;;;;;;5017323;28;20515;-59
2021/06/13 10:23:34;;;;;;;12.97;5.13;;;;;;;;;;5017886;28;20438;-62
2021/06/13 10:26:02;;;;;;;13.93;4.50;;;;;;;;;;5012891;28;20460;-56
2021/06/13 10:28:31;;;;;;;9.37;3.37;;;;;;;;;;5017509;28;20463;-60
2021/06/13 10:30:59;;;;;;;8.97;4.00;;;;;;;;;;5016637;28;20515;-56
2021/06/13 10:33:26;;;;;;;8.47;3.90;;;;;;;;;;5009085;28;20450;-52
2021/06/13 10:35:59;;;;;;;7.80;4.37;;;;;;;;;;5018112;28;20475;-50
2021/06/13 10:38:52;;;;;;;13.37;4.63;;;;;;;;;;5018013;28;20459;-57
2021/06/13 10:41:21;;;;;;;7.97;3.23;;;;;;;;;;5015283;28;20551;-57
2021/06/13 10:44:00;;;;;;;7.70;4.30;;;;;;;;;;5018029;28;20471;-55
2021/06/13 10:46:28;;;;;;;7.17;3.40;;;;;;;;;;5013704;28;20483;-59
2021/06/13 10:48:58;;;;;;;12.30;4.87;;;;;;;;;;5018033;28;20494;-60
2021/06/13 10:51:45;;;;;;;9.93;4.50;;;;;;;;;;5017416;28;20474;-60
2021/06/13 10:54:29;;;;;;;14.30;4.77;;;;;;;;;;5017351;28;20451;-62
2021/06/13 11:00:05;;;;;;;10.10;4.33;;;;;;;;;;5017063;28;20846;-61
2021/06/13 11:02:57;;;;;;;11.90;4.30;;;;;;;;;;4999856;28;20469;-61
2021/06/13 11:05:44;;;;;;;14.37;4.27;;;;;;;;;;5011681;28;20451;-61
2021/06/13 11:08:12;;;;;;;11.97;4.60;;;;;;;;;;5017336;28;20458;-60
2021/06/13 11:10:41;;;;;;;10.77;4.00;;;;;;;;;;5001443;28;20441;-53
2021/06/13 11:16:14;;;;;;;12.30;4.90;;;;;;;;;;5037111;28;20481;-59
2021/06/13 11:18:49;;;;;;;13.00;5.70;;;;;;;;;;5057190;28;20454;-55
2021/06/13 11:21:41;;;;;;;10.20;3.90;;;;;;;;;;5057334;28;20493;-60
2021/06/13 11:24:09;;;;;;;9.83;4.57;;;;;;;;;;5056751;28;20454;-57
2021/06/13 11:26:44;;;;;;;7.53;3.70;;;;;;;;;;5038808;28;20760;-59
2021/06/13 11:29:43;;;;;;;9.97;4.20;;;;;;;;;;5050633;28;20437;-57
2021/06/13 11:32:18;;;;;;;8.00;3.70;;;;;;;;;;5056890;28;20454;-56
2021/06/13 11:34:48;;;;;;;8.10;3.80;;;;;;;;;;5056150;28;20445;-59
2021/06/13 11:37:22;;;;;;;12.63;4.60;;;;;;;;;;5056495;28;20471;-51
2021/06/13 11:39:56;;;;;;;7.63;3.20;;;;;;;;;;5057188;28;20468;-56
2021/06/13 11:42:29;;;;;;;7.70;3.10;;;;;;;;;;5054853;28;20505;-58
2021/06/13 11:44:57;;;;;;;9.50;3.10;;;;;;;;;;5072883;28;20461;-57
2021/06/13 11:50:36;;;;;;;14.47;3.77;;;;;;;;;;5053762;28;20413;-60
2021/06/13 11:53:06;;;;;;;9.03;3.93;;;;;;;;;;5037055;28;20457;-53
2021/06/13 11:55:52;;;;;;;11.00;3.50;;;;;;;;;;5056122;28;20537;-60
2021/06/13 12:04:14;;;;;;;9.83;3.30;;;;;;;;;;5055871;28;20460;-60
2021/06/13 12:06:43;;;;;;;7.07;3.80;;;;;;;;;;5056360;28;20453;-55
2021/06/13 12:09:43;;;;;;;8.70;4.20;;;;;;;;;;5058071;28;20852;-55
2021/06/13 12:12:18;;;;;;;7.93;3.73;;;;;;;;;;5057979;28;20468;-58
2021/06/13 12:14:51;;;;;;;12.07;4.40;;;;;;;;;;5063007;28;20503;-58
2021/06/13 12:17:20;;;;;;;14.03;8.70;;;;;;;;;;5041819;28;20492;-58
2021/06/13 12:19:51;;;;;;;14.37;8.23;;;;;;;;;;5068078;28;20467;-56
2021/06/13 12:22:25;;;;;;;9.83;4.00;;;;;;;;;;5054732;28;20430;-56
2021/06/13 12:27:39;;;;;;;7.73;3.30;;;;;;;;;;5015917;28;20449;-59
2021/06/13 12:32:36;;;;;;;9.67;3.73;;;;;;;;;;5053777;28;20548;-55
2021/06/13 12:35:08;;;;;;;6.90;3.70;;;;;;;;;;5055687;28;20485;-56
2021/06/13 12:40:42;;;;;;;11.13;3.97;;;;;;;;;;5040892;28;20551;-59
2021/06/13 12:43:11;;;;;;;10.07;3.77;;;;;;;;;;5056030;28;20430;-59
2021/06/13 12:45:58;;;;;;;10.13;4.27;;;;;;;;;;5055615;28;20430;-56
2021/06/13 12:48:26;;;;;;;7.73;3.60;;;;;;;;;;5054822;28;20545;-55
2021/06/13 12:50:53;;;;;;;11.63;4.50;;;;;;;;;;5055089;28;20466;-57
2021/06/13 12:56:39;;;;;;;9.10;3.37;;;;;;;;;;5049193;28;20588;-60
2021/06/13 13:01:55;;;;;;;12.63;5.13;;;;;;;;;;5052234;28;20503;-51
2021/06/13 13:04:38;;;;;;;7.33;3.53;;;;;;;;;;5048062;28;20475;-62
2021/06/13 13:07:06;;;;;;;6.63;3.80;;;;;;;;;;5049623;28;20477;-64
2021/06/13 13:09:36;;;;;;;8.57;4.37;;;;;;;;;;5037658;28;20525;-59
2021/06/13 13:12:06;;;;;;;7.90;4.07;;;;;;;;;;5054215;28;20434;-54
2021/06/13 13:14:41;;;;;;;9.03;4.03;;;;;;;;;;5054336;28;20442;-59
2021/06/13 13:17:12;;;;;;;6.93;3.47;;;;;;;;;;5051926;28;20449;-54
2021/06/13 13:19:41;;;;;;;9.37;4.30;;;;;;;;;;5054858;28;20458;-53
2021/06/13 13:22:26;;;;;;;10.83;4.50;;;;;;;;;;5055413;28;20588;-54
2021/06/13 13:24:54;;;;;;;7.13;3.90;;;;;;;;;;5054350;28;20446;-60
2021/06/13 13:27:30;;;;;;;9.43;4.60;;;;;;;;;;5054701;28;20458;-54
2021/06/13 13:36:28;;;;;;;8.73;3.80;;;;;;;;;;5055151;28;20476;-57
2021/06/13 13:38:59;;;;;;;15.20;7.73;;;;;;;;;;5054960;28;20462;-52
2021/06/13 13:41:45;;;;;;;12.13;4.27;;;;;;;;;;5055055;28;20493;-57
2021/06/13 13:44:39;;;;;;;9.67;3.87;;;;;;;;;;5055209;28;20462;-54
2021/06/13 13:47:08;;;;;;;12.53;4.60;;;;;;;;;;5055292;28;20521;-60
2021/06/13 13:49:43;;;;;;;12.23;4.33;;;;;;;;;;5055182;28;20458;-60
2021/06/13 13:52:23;;;;;;;9.20;3.83;;;;;;;;;;5048887;28;20458;-56
2021/06/13 13:55:07;;;;;;;8.30;3.50;;;;;;;;;;5042003;28;20502;-50
2021/06/13 13:57:44;;;;;;;9.90;3.73;;;;;;;;;;5058968;28;20442;-55
2021/06/13 14:00:13;;;;;;;14.67;4.37;;;;;;;;;;5052218;28;20484;-59
2021/06/13 14:02:42;;;;;;;6.70;3.00;;;;;;;;;;5038986;28;20459;-58
2021/06/13 14:05:15;;;;;;;16.93;8.80;;;;;;;;;;5055905;28;20454;-56
2021/06/13 14:07:43;;;;;;;10.27;4.17;;;;;;;;;;5058308;28;20457;-55
2021/06/13 14:10:21;;;;;;;11.73;4.50;;;;;;;;;;5058877;28;20442;-53
2021/06/13 14:12:56;;;;;;;11.80;5.57;;;;;;;;;;5057608;28;20496;-60
2021/06/13 14:15:25;;;;;;;8.87;5.20;;;;;;;;;;5058580;28;20460;-52
2021/06/13 14:17:53;;;;;;;7.80;4.40;;;;;;;;;;5058079;28;20461;-50
2021/06/13 14:20:23;;;;;;;9.53;4.63;;;;;;;;;;5057869;28;20442;-60
2021/06/13 14:28:45;;;;;;;10.17;4.37;;;;;;;;;;5057460;28;20560;-53
2021/06/13 14:34:08;;;;;;;9.47;5.30;;;;;;;;;;5057209;28;20462;-57
2021/06/13 14:37:00;;;;;;;15.00;7.17;;;;;;;;;;5058251;28;20442;-54
2021/06/13 14:39:29;;;;;;;15.90;4.93;;;;;;;;;;5057935;28;20496;-54
2021/06/13 14:41:56;;;;;;;10.40;3.93;;;;;;;;;;5057823;28;20508;-57
2021/06/13 14:44:25;;;;;;;9.77;3.60;;;;;;;;;;5057330;28;20448;-52
2021/06/13 14:46:55;;;;;;;9.33;4.80;;;;;;;;;;5056267;28;20466;-57
2021/06/13 14:49:23;;;;;;;8.17;4.50;;;;;;;;;;5057174;28;20446;-61
2021/06/13 14:52:07;;;;;;;11.47;5.27;;;;;;;;;;5056641;28;20446;-60
2021/06/13 14:54:35;;;;;;;8.73;5.00;;;;;;;;;;5057389;28;20694;-54
2021/06/13 14:57:07;;;;;;;11.27;4.17;;;;;;;;;;5056625;28;20438;-58
2021/06/13 15:00:04;;;;;;;14.40;5.87;;;;;;;;;;5056242;28;20473;-57
2021/06/13 15:02:33;;;;;;;11.23;4.30;;;;;;;;;;5055858;28;20576;-59
2021/06/13 15:05:01;;;;;;;14.43;3.90;;;;;;;;;;5055333;28;20436;-53
2021/06/13 15:07:31;;;;;;;11.07;5.00;;;;;;;;;;5056421;28;20441;-57
2021/06/13 15:09:58;;;;;;;13.90;5.57;;;;;;;;;;5056904;28;20461;-56
2021/06/13 15:12:27;;;;;;;8.27;3.77;;;;;;;;;;5056893;28;20501;-59
2021/06/13 15:15:15;;;;;;;15.33;5.80;;;;;;;;;;5056815;28;20446;-58
2021/06/13 15:17:45;;;;;;;8.83;4.60;;;;;;;;;;5054552;28;20474;-54
2021/06/13 15:20:19;;;;;;;9.97;4.73;;;;;;;;;;5057025;28;20468;-53
2021/06/13 15:22:47;;;;;;;13.17;4.77;;;;;;;;;;5053271;28;20497;-56
2021/06/13 15:25:16;;;;;;;12.37;4.97;;;;;;;;;;5056262;28;20440;-58
2021/06/13 15:28:19;;;;;;;10.53;4.50;;;;;;;;;;5056975;28;20442;-55
2021/06/13 15:30:46;;;;;;;12.13;4.20;;;;;;;;;;5050232;28;20442;-54
2021/06/13 15:33:16;;;;;;;16.50;5.00;;;;;;;;;;5056621;28;20465;-56
2021/06/13 15:35:57;;;;;;;10.23;4.17;;;;;;;;;;5056304;28;20457;-60
2021/06/13 15:38:25;;;;;;;11.00;5.67;;;;;;;;;;5046072;28;20457;-54
2021/06/13 15:40:53;;;;;;;12.53;4.53;;;;;;;;;;5056308;28;20464;-56
2021/06/13 15:43:44;;;;;;;8.40;3.47;;;;;;;;;;5056380;28;20423;-55
2021/06/13 15:46:13;;;;;;;7.00;3.70;;;;;;;;;;5055509;28;20440;-54
2021/06/13 15:48:52;;;;;;;10.10;4.13;;;;;;;;;;5055963;28;20438;-56
2021/06/13 15:51:41;;;;;;;10.40;3.80;;;;;;;;;;5055853;28;20462;-60
2021/06/13 15:54:08;;;;;;;8.83;4.20;;;;;;;;;;5036135;28;20455;-58
2021/06/13 15:56:42;;;;;;;7.53;4.10;;;;;;;;;;5050634;28;20437;-59
2021/06/13 16:02:18;;;;;;;12.97;7.10;;;;;;;;;;5062178;28;20487;-55
2021/06/13 16:04:47;;;;;;;11.60;4.50;;;;;;;;;;5056015;28;20480;-55
2021/06/13 16:07:49;;;;;;;8.83;4.17;;;;;;;;;;5055875;28;20434;-53
2021/06/13 16:13:26;;;;;;;7.23;3.60;;;;;;;;;;5055206;28;20903;-55
2021/06/13 16:15:55;;;;;;;6.60;3.30;;;;;;;;;;5053415;28;20458;-52
2021/06/13 16:18:24;;;;;;;8.53;4.70;;;;;;;;;;5035904;28;20479;-59